createdAt,value
2018-07-13T00:01:43.978Z,92270.40
2018-07-13T00:04:17.892Z,92264.82
2018-07-13T00:06:51.705Z,92271.54
2018-07-13T00:09:25.687Z,92273.83
2018-07-13T00:11:59.690Z,92274.62
2018-07-13T00:14:33.640Z,92275.97
2018-07-13T00:17:07.668Z,92281.06
2018-07-13T00:19:41.712Z,92280.42
2018-07-13T00:22:15.763Z,92272.98
2018-07-13T00:24:49.797Z,92280.41
2018-07-13T00:27:23.707Z,92279.36
2018-07-13T00:29:57.762Z,92277.09
2018-07-13T00:32:31.626Z,92271.56
2018-07-13T00:35:05.694Z,92271.90
2018-07-13T00:37:39.604Z,92265.56
2018-07-13T00:40:13.663Z,92274.44
2018-07-13T00:42:47.551Z,92263.50
2018-07-13T00:45:21.477Z,92260.36
2018-07-13T00:47:55.444Z,92257.86
2018-07-13T00:50:29.461Z,92264.42
2018-07-13T00:53:03.403Z,92260.51
2018-07-13T00:55:37.390Z,92270.57
2018-07-13T00:58:11.441Z,92263.00
2018-07-13T01:00:45.410Z,92260.54
2018-07-13T01:03:19.318Z,92264.97
2018-07-13T01:05:53.349Z,92268.78
2018-07-13T01:08:27.193Z,92262.50
2018-07-13T01:11:01.461Z,92266.78
2018-07-13T01:13:35.533Z,92266.38
2018-07-13T01:16:09.847Z,92272.58
2018-07-13T01:18:43.831Z,92270.36
2018-07-13T01:21:18.013Z,92267.56
2018-07-13T01:23:51.856Z,92274.94
2018-07-13T01:26:25.986Z,92266.38
2018-07-13T01:28:59.913Z,92263.80
2018-07-13T01:31:33.871Z,92269.49
2018-07-13T01:34:07.662Z,92273.52
2018-07-13T01:36:41.730Z,92268.45
2018-07-13T01:39:15.660Z,92272.05
2018-07-13T01:41:54.928Z,92265.65
2018-07-13T01:44:28.970Z,92267.13
2018-07-13T01:47:02.913Z,92265.76
2018-07-13T01:49:36.937Z,92268.84
2018-07-13T01:52:10.881Z,92263.45
2018-07-13T01:54:44.818Z,92265.30
2018-07-13T01:57:18.790Z,92265.06
2018-07-13T01:59:52.820Z,92268.85
2018-07-13T02:02:26.873Z,92260.05
2018-07-13T02:05:00.793Z,92260.76
2018-07-13T02:07:35.161Z,92265.22
2018-07-13T02:10:09.231Z,92262.32
2018-07-13T02:12:43.167Z,92262.26
2018-07-13T02:15:17.090Z,92264.63
2018-07-13T02:17:51.248Z,92265.98
2018-07-13T02:20:25.177Z,92261.83
2018-07-13T02:22:59.290Z,92265.57
2018-07-13T02:25:33.262Z,92266.56
2018-07-13T02:28:07.314Z,92272.00
2018-07-13T02:30:41.211Z,92269.63
2018-07-13T02:33:15.219Z,92259.09
2018-07-13T02:35:49.170Z,92261.98
2018-07-13T02:38:23.247Z,92264.17
2018-07-13T02:40:57.173Z,92262.45
2018-07-13T02:43:32.294Z,92265.53
2018-07-13T02:46:06.159Z,92259.91
2018-07-13T02:48:40.109Z,92262.61
2018-07-13T02:51:14.140Z,92270.01
2018-07-13T02:53:48.080Z,92266.98
2018-07-13T02:56:22.020Z,92267.50
2018-07-13T02:58:55.992Z,92267.87
2018-07-13T03:01:30.017Z,92272.52
2018-07-13T03:04:04.148Z,92270.32
2018-07-13T03:06:37.978Z,92267.17
2018-07-13T03:09:12.905Z,92263.89
2018-07-13T03:11:46.932Z,92265.28
2018-07-13T03:14:21.042Z,92258.41
2018-07-13T03:16:55.590Z,92258.30
2018-07-13T03:19:29.699Z,92255.52
2018-07-13T03:22:03.686Z,92257.55
2018-07-13T03:24:38.543Z,92259.32
2018-07-13T03:27:12.614Z,92257.71
2018-07-13T03:29:46.786Z,92264.34
2018-07-13T03:32:20.751Z,92263.98
2018-07-13T03:34:54.927Z,92265.84
2018-07-13T03:37:28.901Z,92262.77
2018-07-13T03:40:03.021Z,92262.89
2018-07-13T03:42:36.879Z,92260.47
2018-07-13T03:45:10.855Z,92263.69
2018-07-13T03:47:44.725Z,92273.96
2018-07-13T03:50:18.818Z,92264.81
2018-07-13T03:52:52.878Z,92268.27
2018-07-13T03:55:26.918Z,92274.47
2018-07-13T03:58:00.855Z,92270.93
2018-07-13T04:00:34.974Z,92270.19
2018-07-13T04:03:08.950Z,92266.45
2018-07-13T04:05:42.974Z,92270.92
2018-07-13T04:08:17.084Z,92266.80
2018-07-13T04:10:51.200Z,92263.60
2018-07-13T04:13:25.278Z,92275.64
2018-07-13T04:15:59.277Z,92271.99
2018-07-13T04:18:33.165Z,92269.41
2018-07-13T04:21:07.185Z,92265.48
2018-07-13T04:23:41.353Z,92274.82
2018-07-13T04:26:15.621Z,92269.65
2018-07-13T04:28:50.510Z,92268.34
2018-07-13T04:31:24.535Z,92270.66
2018-07-13T04:33:58.520Z,92270.41
2018-07-13T04:36:32.496Z,92264.09
2018-07-13T04:39:13.486Z,92270.88
2018-07-13T04:41:47.625Z,92271.66
2018-07-13T04:44:21.632Z,92266.25
2018-07-13T04:46:55.764Z,92268.11
2018-07-13T04:49:29.797Z,92266.95
2018-07-13T04:59:04.672Z,92263.77
2018-07-13T05:01:38.853Z,92261.64
2018-07-13T05:04:13.056Z,92261.72
2018-07-13T05:06:47.501Z,92263.91
2018-07-13T05:09:21.689Z,92255.91
2018-07-13T05:11:55.732Z,92256.30
2018-07-13T05:14:24.213Z,92256.08
2018-07-13T05:16:52.597Z,92255.48
2018-07-13T05:19:20.579Z,92254.36
2018-07-13T05:21:48.775Z,92256.50
2018-07-13T05:24:16.797Z,92248.00
2018-07-13T05:33:43.936Z,92254.50
2018-07-13T05:36:11.983Z,92256.30
2018-07-13T05:38:40.055Z,92256.09
2018-07-13T05:41:08.135Z,92249.30
2018-07-13T05:43:36.194Z,92253.33
2018-07-13T05:46:04.265Z,92256.59
2018-07-13T05:48:32.471Z,92255.95
2018-07-13T05:51:00.510Z,92252.89
2018-07-13T05:53:28.560Z,92254.48
2018-07-13T05:55:56.641Z,92257.29
2018-07-13T05:58:24.702Z,92255.04
2018-07-13T06:00:52.957Z,92257.07
2018-07-13T06:03:21.128Z,92253.11
2018-07-13T06:05:49.401Z,92251.61
2018-07-13T06:08:17.425Z,92248.45
2018-07-13T06:10:45.523Z,92251.92
2018-07-13T06:13:13.584Z,92250.09
2018-07-13T06:15:41.528Z,92252.65
2018-07-13T06:18:09.650Z,92243.94
2018-07-13T06:20:37.572Z,92239.75
2018-07-13T06:23:05.462Z,92254.28
2018-07-13T06:25:33.408Z,92236.45
2018-07-13T06:28:01.429Z,92244.25
2018-07-13T06:30:29.348Z,92239.83
2018-07-13T06:32:57.369Z,92237.33
2018-07-13T06:35:25.860Z,92234.37
2018-07-13T06:37:53.869Z,92226.75
2018-07-13T06:40:21.844Z,92223.16
2018-07-13T06:42:49.716Z,92218.69
2018-07-13T06:45:17.736Z,92220.19
2018-07-13T06:47:45.725Z,92217.09
2018-07-13T06:50:13.712Z,92219.42
2018-07-13T06:52:42.177Z,92220.58
2018-07-13T06:55:10.117Z,92222.88
2018-07-13T06:57:49.103Z,92214.48
2018-07-13T07:01:19.785Z,92215.06
2018-07-13T07:04:53.854Z,92212.23
2018-07-13T07:07:25.449Z,92207.27
2018-07-13T07:09:55.627Z,92211.44
2018-07-13T07:12:37.130Z,92205.56
2018-07-13T07:15:05.254Z,92203.80
2018-07-13T07:17:33.141Z,92209.66
2018-07-13T07:20:01.117Z,92202.60
2018-07-13T07:22:29.174Z,92204.70
2018-07-13T07:24:57.125Z,92200.09
2018-07-13T07:27:26.834Z,92203.34
2018-07-13T07:30:01.023Z,92198.54
2018-07-13T07:32:36.058Z,92197.48
2018-07-13T07:35:10.536Z,92191.75
2018-07-13T07:37:44.537Z,92192.84
2018-07-13T07:40:18.662Z,92189.88
2018-07-13T07:42:53.140Z,92186.11
2018-07-13T07:45:21.111Z,92188.37
2018-07-13T07:47:55.684Z,92189.51
2018-07-13T07:50:23.561Z,92184.30
2018-07-13T07:52:51.426Z,92182.83
2018-07-13T07:55:19.342Z,92176.18
2018-07-13T07:57:47.219Z,92176.31
2018-07-13T08:00:15.139Z,92172.22
2018-07-13T08:02:43.076Z,92178.12
2018-07-13T08:05:10.961Z,92174.58
2018-07-13T08:07:39.098Z,92174.76
2018-07-13T08:10:07.294Z,92169.11
2018-07-13T08:12:35.210Z,92172.69
2018-07-13T08:15:03.205Z,92176.81
2018-07-13T08:17:31.207Z,92175.72
2018-07-13T08:19:59.158Z,92168.59
2018-07-13T08:22:34.558Z,92171.68
2018-07-13T08:25:04.952Z,92174.16
2018-07-13T08:27:36.916Z,92176.97
2018-07-13T08:30:06.283Z,92176.27
2018-07-13T08:32:34.176Z,92173.25
2018-07-13T08:35:02.155Z,92172.01
2018-07-13T08:37:30.241Z,92170.48
2018-07-13T08:39:58.194Z,92164.77
2018-07-13T08:42:27.224Z,92162.73
2018-07-13T08:44:55.476Z,92162.91
2018-07-13T08:47:24.209Z,92162.09
2018-07-13T08:49:52.350Z,92164.22
2018-07-13T08:52:20.454Z,92157.46
2018-07-13T08:54:49.464Z,92158.59
2018-07-13T08:57:17.687Z,92156.30
2018-07-13T08:59:45.969Z,92153.67
2018-07-13T09:02:13.930Z,92156.49
2018-07-13T09:04:42.019Z,92158.75
2018-07-13T09:07:10.381Z,92147.98
2018-07-13T09:09:39.173Z,92154.03
2018-07-13T09:12:07.330Z,92153.29
2018-07-13T09:14:35.504Z,92149.16
2018-07-13T09:17:03.493Z,92147.91
2018-07-13T09:19:31.508Z,92148.84
2018-07-13T09:21:59.438Z,92148.38
2018-07-13T09:24:27.502Z,92144.11
2018-07-13T09:26:57.013Z,92134.47
2018-07-13T09:29:24.921Z,92131.77
2018-07-13T09:31:52.928Z,92131.84
2018-07-13T09:34:21.856Z,92129.73
2018-07-13T09:36:49.820Z,92135.37
2018-07-13T09:39:19.053Z,92130.33
2018-07-13T09:41:47.265Z,92127.67
2018-07-13T09:44:20.607Z,92123.51
2018-07-13T09:46:48.788Z,92123.50
2018-07-13T09:49:16.647Z,92120.73
2018-07-13T09:51:44.615Z,92119.41
2018-07-13T09:54:12.641Z,92114.55
2018-07-13T09:56:40.681Z,92117.84
2018-07-13T09:59:08.659Z,92113.78
2018-07-13T10:01:36.745Z,92111.08
2018-07-13T10:04:04.818Z,92112.52
2018-07-13T10:06:32.853Z,92107.50
2018-07-13T10:09:01.764Z,92104.16
2018-07-13T10:11:29.851Z,92101.41
2018-07-13T10:13:58.270Z,92108.38
2018-07-13T10:16:26.337Z,92097.19
2018-07-13T10:18:57.189Z,92091.69
2018-07-13T10:21:25.311Z,92088.24
2018-07-13T10:23:53.508Z,92088.95
2018-07-13T10:26:31.985Z,92082.00
2018-07-13T10:29:00.252Z,92077.89
2018-07-13T10:31:28.402Z,92082.04
2018-07-13T10:33:56.590Z,92073.00
2018-07-13T10:36:24.854Z,92086.02
2018-07-13T10:38:56.006Z,92076.41
2018-07-13T10:41:23.981Z,92073.72
2018-07-13T10:43:51.983Z,92068.87
2018-07-13T10:47:44.379Z,92061.93
2018-07-13T10:50:13.388Z,92066.70
2018-07-13T10:52:41.295Z,92062.55
2018-07-13T10:55:09.290Z,92063.94
2018-07-13T10:57:37.231Z,92065.22
2018-07-13T11:00:05.210Z,92061.81
2018-07-13T11:02:33.102Z,92059.79
2018-07-13T11:05:01.049Z,92057.77
2018-07-13T11:07:29.123Z,92048.75
2018-07-13T11:09:57.015Z,92048.75
2018-07-13T11:12:24.997Z,92058.41
2018-07-13T11:14:52.935Z,92047.37
2018-07-13T11:17:20.848Z,92047.34
2018-07-13T11:21:13.197Z,92043.17
2018-07-13T11:23:41.147Z,92044.54
2018-07-13T11:26:09.103Z,92049.39
2018-07-13T11:28:37.111Z,92050.09
2018-07-13T11:31:05.011Z,92057.70
2018-07-13T11:33:33.014Z,92049.42
2018-07-13T11:36:01.021Z,92055.00
2018-07-13T11:38:30.738Z,92056.20
2018-07-13T11:40:59.159Z,92038.93
2018-07-13T11:43:27.065Z,92037.65
2018-07-13T11:45:54.997Z,92038.30
2018-07-13T11:48:22.858Z,92042.31
2018-07-13T11:50:51.161Z,92032.92
2018-07-13T11:53:19.197Z,92054.05
2018-07-13T11:55:47.120Z,92054.16
2018-07-13T11:58:15.046Z,92052.09
2018-07-13T12:00:42.985Z,92059.72
2018-07-13T12:03:10.864Z,92059.14
2018-07-13T12:05:38.765Z,92059.13
2018-07-13T12:08:07.637Z,92059.86
2018-07-13T12:10:35.561Z,92055.00
2018-07-13T12:13:03.555Z,92064.02
2018-07-13T12:15:31.503Z,92065.94
2018-07-13T12:17:59.373Z,92066.66
2018-07-13T12:20:27.334Z,92066.59
2018-07-13T12:23:00.362Z,92071.98
2018-07-13T12:25:28.615Z,92083.42
2018-07-13T12:27:56.493Z,92078.45
2018-07-13T12:30:24.386Z,92080.62
2018-07-13T12:32:52.339Z,92085.29
2018-07-13T12:35:21.881Z,92080.72
2018-07-13T12:37:49.934Z,92089.45
2018-07-13T12:40:17.857Z,92097.69
2018-07-13T12:42:48.987Z,92100.53
2018-07-13T12:45:16.893Z,92095.23
2018-07-13T12:47:44.830Z,92113.12
2018-07-13T12:50:12.760Z,92118.11
2018-07-13T12:52:40.631Z,92133.46
2018-07-13T12:55:08.779Z,92139.08
2018-07-13T12:57:36.670Z,92141.01
2018-07-13T13:00:04.609Z,92151.25
2018-07-13T13:02:32.553Z,92151.95
2018-07-13T13:05:00.436Z,92149.86
2018-07-13T13:07:28.363Z,92157.86
2018-07-13T13:09:56.277Z,92158.86
2018-07-13T13:12:24.150Z,92153.67
2018-07-13T13:14:52.033Z,92145.67
2018-07-13T13:17:20.006Z,92148.44
2018-07-13T13:19:47.886Z,92142.55
2018-07-13T13:22:15.756Z,92154.60
2018-07-13T13:24:43.682Z,92160.63
2018-07-13T13:27:11.553Z,92154.58
2018-07-13T13:29:39.456Z,92166.15
2018-07-13T13:32:11.266Z,92162.10
2018-07-13T13:34:39.140Z,92159.72
2018-07-13T13:37:07.122Z,92157.75
2018-07-13T13:39:35.469Z,92154.61
2018-07-13T13:42:03.368Z,92149.94
2018-07-13T13:44:31.234Z,92153.49
2018-07-13T13:46:59.185Z,92141.39
2018-07-13T13:49:27.058Z,92138.19
2018-07-13T13:51:54.941Z,92147.24
2018-07-13T13:54:22.886Z,92151.44
2018-07-13T13:56:50.784Z,92143.06
2018-07-13T13:59:18.878Z,92148.66
2018-07-13T14:01:46.865Z,92137.52
2018-07-13T14:04:14.751Z,92139.41
2018-07-13T14:06:42.624Z,92132.30
2018-07-13T14:09:10.562Z,92133.86
2018-07-13T14:11:38.493Z,92130.17
2018-07-13T14:14:06.430Z,92138.00
2018-07-13T14:16:34.352Z,92130.57
2018-07-13T14:19:02.249Z,92135.43
2018-07-13T14:21:30.208Z,92129.23
2018-07-13T14:23:58.128Z,92120.80
2018-07-13T14:26:25.992Z,92129.07
2018-07-13T14:28:54.198Z,92126.93
2018-07-13T14:31:22.152Z,92122.20
2018-07-13T14:33:50.042Z,92121.48
2018-07-13T14:36:18.086Z,92123.70
2018-07-13T14:38:45.997Z,92121.13
2018-07-13T14:41:14.021Z,92112.53
2018-07-13T14:43:42.036Z,92116.55
2018-07-13T14:46:10.032Z,92105.63
2018-07-13T14:48:37.976Z,92104.19
2018-07-13T14:51:06.079Z,92094.10
2018-07-13T14:53:34.063Z,92092.92
2018-07-13T14:56:02.057Z,92097.92
2018-07-13T14:58:30.058Z,92095.97
2018-07-13T15:00:58.065Z,92087.02
2018-07-13T15:03:26.063Z,92084.67
2018-07-13T15:05:53.987Z,92080.38
2018-07-13T15:08:21.962Z,92086.91
2018-07-13T15:10:49.859Z,92088.58
2018-07-13T15:13:17.741Z,92088.50
2018-07-13T15:15:45.800Z,92082.87
2018-07-13T15:18:13.727Z,92083.48
2018-07-13T15:20:41.730Z,92080.67
2018-07-13T15:23:09.641Z,92088.71
2018-07-13T15:25:37.558Z,92081.41
2018-07-13T15:28:08.987Z,92077.45
2018-07-13T15:30:37.825Z,92077.30
2018-07-13T15:33:05.875Z,92079.22
2018-07-13T15:35:34.234Z,92081.06
2018-07-13T15:38:02.179Z,92080.67
2018-07-13T15:40:30.070Z,92076.58
2018-07-13T15:42:58.411Z,92068.61
2018-07-13T15:45:26.390Z,92083.42
2018-07-13T15:47:54.261Z,92073.39
2018-07-13T15:50:22.167Z,92077.05
2018-07-13T15:52:50.195Z,92067.30
2018-07-13T15:55:18.091Z,92078.66
2018-07-13T15:57:45.967Z,92084.43
2018-07-13T16:00:13.960Z,92086.88
2018-07-13T16:02:41.854Z,92083.25
2018-07-13T16:05:09.774Z,92091.70
2018-07-13T16:07:37.685Z,92089.50
2018-07-13T16:10:05.630Z,92086.21
2018-07-13T16:12:33.523Z,92093.77
2018-07-13T16:15:01.501Z,92090.58
2018-07-13T16:17:29.413Z,92092.31
2018-07-13T16:19:57.310Z,92092.08
2018-07-13T16:22:25.225Z,92091.31
2018-07-13T16:24:53.118Z,92100.65
2018-07-13T16:27:21.005Z,92095.10
2018-07-13T16:29:48.932Z,92099.09
2018-07-13T16:32:16.828Z,92090.43
2018-07-13T16:34:44.860Z,92092.98
2018-07-13T16:37:12.888Z,92092.30
2018-07-13T16:39:40.799Z,92090.77
2018-07-13T16:42:08.683Z,92091.66
2018-07-13T16:44:36.661Z,92093.91
2018-07-13T16:47:04.566Z,92094.03
2018-07-13T16:49:32.467Z,92088.81
2018-07-13T16:52:00.408Z,92092.13
2018-07-13T16:54:28.294Z,92095.38
2018-07-13T16:56:56.145Z,92093.85
2018-07-13T16:59:24.387Z,92091.03
2018-07-13T17:01:52.403Z,92093.55
2018-07-13T17:04:20.304Z,92091.95
2018-07-13T17:06:48.229Z,92092.88
2018-07-13T17:09:16.262Z,92099.05
2018-07-13T17:11:44.132Z,92100.62
2018-07-13T17:14:12.841Z,92099.23
2018-07-13T17:16:40.724Z,92097.64
2018-07-13T17:19:08.604Z,92095.94
2018-07-13T17:21:36.610Z,92100.87
2018-07-13T17:24:04.493Z,92107.48
2018-07-13T17:26:32.378Z,92108.42
2018-07-13T17:29:00.308Z,92115.25
2018-07-13T17:31:28.301Z,92122.21
2018-07-13T17:33:56.167Z,92117.06
2018-07-13T17:36:24.118Z,92115.40
2018-07-13T17:38:52.008Z,92116.39
2018-07-13T17:41:19.908Z,92111.35
2018-07-13T17:43:48.264Z,92115.78
2018-07-13T17:46:16.218Z,92116.28
2018-07-13T17:48:44.109Z,92125.20
2018-07-13T17:51:12.025Z,92124.62
2018-07-13T17:53:39.900Z,92129.33
2018-07-13T17:56:08.041Z,92128.94
2018-07-13T17:58:35.980Z,92130.73
2018-07-13T18:01:03.924Z,92129.73
2018-07-13T18:03:31.791Z,92135.94
2018-07-13T18:05:59.783Z,92141.20
2018-07-13T18:08:27.660Z,92138.20
2018-07-13T18:10:55.634Z,92140.03
2018-07-13T18:13:23.517Z,92145.55
2018-07-13T18:15:51.430Z,92147.45
2018-07-13T18:18:19.298Z,92149.92
2018-07-13T18:20:47.227Z,92156.63
2018-07-13T18:23:15.139Z,92165.87
2018-07-13T18:25:43.040Z,92165.44
2018-07-13T18:28:11.056Z,92179.53
2018-07-13T18:30:38.905Z,92183.48
2018-07-13T18:33:07.083Z,92186.73
2018-07-13T18:35:35.030Z,92184.68
2018-07-13T18:38:02.913Z,92191.15
2018-07-13T18:40:30.784Z,92192.00
2018-07-13T18:42:58.695Z,92193.70
2018-07-13T18:45:26.562Z,92185.95
2018-07-13T18:47:57.842Z,92188.93
2018-07-13T18:50:25.856Z,92193.77
2018-07-13T18:52:53.749Z,92198.72
2018-07-13T18:55:21.802Z,92204.00
2018-07-13T18:57:49.777Z,92211.92
2018-07-13T19:00:17.676Z,92213.14
2018-07-13T19:02:45.575Z,92215.96
2018-07-13T19:05:13.508Z,92212.77
2018-07-13T19:07:42.157Z,92214.05
2018-07-13T19:10:10.075Z,92211.14
2018-07-13T19:12:38.053Z,92214.66
2018-07-13T19:15:06.050Z,92212.86
2018-07-13T19:17:33.999Z,92219.30
2018-07-13T19:20:02.015Z,92220.42
2018-07-13T19:22:29.932Z,92224.90
2018-07-13T19:24:57.889Z,92222.34
2018-07-13T19:27:25.841Z,92225.61
2018-07-13T19:29:53.882Z,92225.98
2018-07-13T19:32:21.801Z,92233.79
2018-07-13T19:34:49.820Z,92235.20
2018-07-13T19:37:18.107Z,92234.58
2018-07-13T19:39:46.032Z,92240.21
2018-07-13T19:42:13.976Z,92232.73
2018-07-13T19:44:42.172Z,92230.48
2018-07-13T19:47:10.184Z,92229.52
2018-07-13T19:49:38.319Z,92232.52
2018-07-13T19:52:06.221Z,92235.63
2018-07-13T19:54:34.148Z,92237.58
2018-07-13T19:57:02.459Z,92236.81
2018-07-13T19:59:36.322Z,92235.80
2018-07-13T20:02:10.338Z,92232.36
2018-07-13T20:04:44.274Z,92245.78
2018-07-13T20:07:18.476Z,92245.22
2018-07-13T20:09:52.503Z,92248.28
2018-07-13T20:12:26.801Z,92254.19
2018-07-13T20:15:00.722Z,92252.88
2018-07-13T20:17:34.706Z,92257.81
2018-07-13T20:20:09.146Z,92257.52
2018-07-13T20:22:43.182Z,92255.15
2018-07-13T20:25:17.313Z,92254.19
2018-07-13T20:27:51.346Z,92258.52
2018-07-13T20:30:25.443Z,92252.06
2018-07-13T20:32:59.385Z,92255.03
2018-07-13T20:35:33.196Z,92256.26
2018-07-13T20:38:07.530Z,92252.31
2018-07-13T20:40:41.463Z,92247.25
2018-07-13T20:43:15.472Z,92252.41
2018-07-13T20:45:49.515Z,92250.05
2018-07-13T20:48:23.485Z,92254.55
2018-07-13T20:50:57.549Z,92257.36
2018-07-13T20:53:31.596Z,92260.81
2018-07-13T20:56:05.591Z,92262.50
2018-07-13T20:58:39.637Z,92251.53
2018-07-13T21:01:13.558Z,92246.05
2018-07-13T21:03:47.425Z,92241.94
2018-07-13T21:06:21.393Z,92250.45
2018-07-13T21:08:55.427Z,92250.90
2018-07-13T21:11:29.372Z,92252.62
2018-07-13T21:14:03.590Z,92243.70
2018-07-13T21:16:37.609Z,92252.31
2018-07-13T21:19:11.601Z,92255.25
2018-07-13T21:21:45.612Z,92255.95
2018-07-13T21:24:19.636Z,92255.03
2018-07-13T21:26:53.688Z,92256.56
2018-07-13T21:29:27.600Z,92257.36
2018-07-13T21:32:03.297Z,92262.86
2018-07-13T21:34:37.433Z,92261.50
2018-07-13T21:37:11.421Z,92259.69
2018-07-13T21:39:45.502Z,92255.09
2018-07-13T21:42:19.376Z,92255.97
2018-07-13T21:44:58.181Z,92256.22
2018-07-13T21:47:36.835Z,92256.82
2018-07-13T21:50:16.747Z,92257.54
2018-07-13T21:52:52.554Z,92262.86
2018-07-13T21:55:28.426Z,92263.19
2018-07-13T21:58:05.978Z,92255.73
2018-07-13T22:00:40.370Z,92258.45
2018-07-13T22:06:11.907Z,92259.11
2018-07-13T22:10:10.186Z,92258.34
2018-07-13T22:12:44.174Z,92261.05
2018-07-13T22:15:18.116Z,92260.88
2018-07-13T22:17:52.398Z,92262.33
2018-07-13T22:20:26.305Z,92262.75
2018-07-13T22:23:00.293Z,92261.34
2018-07-13T22:25:34.217Z,92252.17
2018-07-13T22:28:08.128Z,92254.03
2018-07-13T22:30:42.515Z,92249.17
2018-07-13T22:33:16.746Z,92244.28
2018-07-13T22:35:51.009Z,92247.39
2018-07-13T22:38:24.997Z,92247.87
2018-07-13T22:40:59.392Z,92243.61
2018-07-13T22:43:33.386Z,92233.67
2018-07-13T22:46:07.449Z,92240.11
2018-07-13T22:48:41.598Z,92229.07
2018-07-13T22:51:15.553Z,92228.31
2018-07-13T22:53:49.633Z,92227.03
2018-07-13T22:56:23.538Z,92233.22
2018-07-13T22:58:57.717Z,92227.84
2018-07-13T23:01:31.726Z,92231.75
2018-07-13T23:04:10.921Z,92220.41
2018-07-13T23:06:44.825Z,92216.47
2018-07-13T23:09:18.955Z,92224.86
2018-07-13T23:14:46.181Z,92228.83
2018-07-13T23:17:20.268Z,92218.42
2018-07-13T23:19:54.462Z,92216.67
2018-07-13T23:22:28.405Z,92218.20
2018-07-13T23:25:02.400Z,92215.23
2018-07-13T23:27:36.411Z,92208.09
2018-07-13T23:30:10.485Z,92215.97
2018-07-13T23:32:44.351Z,92210.47
2018-07-13T23:35:18.350Z,92207.45
2018-07-13T23:37:52.840Z,92208.00
2018-07-13T23:40:26.945Z,92201.97
2018-07-13T23:43:00.847Z,92207.33
2018-07-13T23:45:34.845Z,92200.44
2018-07-13T23:48:08.790Z,92203.08
2018-07-13T23:50:43.238Z,92202.72
2018-07-13T23:53:17.174Z,92198.30
2018-07-13T23:55:51.265Z,92206.17
2018-07-13T23:58:25.308Z,92205.95
